createdAt,value
2023-03-14T00:01:00.017Z,2.35
2023-03-14T00:03:26.621Z,1.70
2023-03-14T00:05:53.402Z,2.05
2023-03-14T00:08:22.305Z,1.73
2023-03-14T00:10:48.791Z,2.10
2023-03-14T00:13:15.260Z,1.65
2023-03-14T00:15:41.916Z,2.35
2023-03-14T00:18:08.547Z,2.00
2023-03-14T00:20:35.073Z,2.33
2023-03-14T00:23:01.716Z,1.85
2023-03-14T00:25:31.032Z,2.00
2023-03-14T00:27:57.726Z,2.20
2023-03-14T00:30:24.357Z,1.65
2023-03-14T00:32:51.021Z,1.48
2023-03-14T00:35:22.804Z,1.50
2023-03-14T00:37:52.660Z,1.35
2023-03-14T00:40:19.274Z,1.08
2023-03-14T00:42:45.852Z,1.42
2023-03-14T00:45:12.807Z,1.10
2023-03-14T00:47:39.611Z,2.35
2023-03-14T00:50:06.715Z,1.70
2023-03-14T00:52:33.285Z,1.58
2023-03-14T00:55:02.581Z,1.80
2023-03-14T00:57:29.673Z,2.03
2023-03-14T00:59:56.240Z,2.63
2023-03-14T01:02:23.155Z,2.25
2023-03-14T01:04:50.019Z,2.20
2023-03-14T01:07:17.425Z,1.92
2023-03-14T01:09:43.984Z,2.22
2023-03-14T01:12:10.530Z,2.55
2023-03-14T01:14:37.679Z,2.42
2023-03-14T01:17:04.520Z,1.73
2023-03-14T01:19:31.064Z,2.00
2023-03-14T01:21:59.516Z,1.45
2023-03-14T01:24:26.115Z,2.20
2023-03-14T01:26:52.769Z,1.70
2023-03-14T01:29:19.520Z,1.92
2023-03-14T01:31:46.039Z,2.05
2023-03-14T01:34:12.637Z,2.15
2023-03-14T01:36:39.453Z,2.17
2023-03-14T01:39:07.072Z,2.65
2023-03-14T01:41:33.908Z,1.98
2023-03-14T01:44:00.585Z,2.08
2023-03-14T01:46:32.020Z,2.03
2023-03-14T01:49:30.958Z,3.05
2023-03-14T01:52:12.590Z,1.77
2023-03-14T01:54:45.893Z,1.90
2023-03-14T01:57:50.937Z,2.00
2023-03-14T02:00:20.659Z,2.22
2023-03-14T02:02:53.446Z,2.13
2023-03-14T02:05:27.931Z,2.20
2023-03-14T02:08:00.637Z,2.55
2023-03-14T02:10:36.416Z,2.75
2023-03-14T02:13:05.184Z,2.50
2023-03-14T02:15:52.064Z,3.08
2023-03-14T02:18:37.179Z,2.75
2023-03-14T02:21:48.727Z,2.78
2023-03-14T02:24:24.915Z,2.65
2023-03-14T02:27:11.074Z,3.05
2023-03-14T02:29:48.702Z,2.55
2023-03-14T02:32:15.878Z,2.42
2023-03-14T02:34:44.603Z,2.03
2023-03-14T02:37:13.652Z,2.38
2023-03-14T02:39:45.329Z,2.28
2023-03-14T02:42:13.799Z,1.90
2023-03-14T02:44:52.888Z,1.90
2023-03-14T02:47:23.885Z,2.08
2023-03-14T02:49:59.154Z,2.42
2023-03-14T02:52:26.380Z,2.00
2023-03-14T02:54:52.935Z,2.10
2023-03-14T02:57:19.610Z,2.20
2023-03-14T02:59:46.220Z,2.15
2023-03-14T03:02:16.975Z,1.65
2023-03-14T03:04:43.590Z,1.88
2023-03-14T03:07:10.179Z,1.80
2023-03-14T03:09:36.702Z,1.70
2023-03-14T03:12:03.286Z,2.55
2023-03-14T03:14:30.334Z,1.90
2023-03-14T03:17:00.325Z,1.88
2023-03-14T03:19:27.016Z,1.58
2023-03-14T03:21:53.630Z,1.90
2023-03-14T03:24:20.238Z,1.83
2023-03-14T03:26:46.819Z,1.77
2023-03-14T03:29:13.477Z,1.95
2023-03-14T03:31:40.177Z,1.75
2023-03-14T03:34:06.976Z,3.10
2023-03-14T03:36:34.201Z,2.30
2023-03-14T03:39:00.831Z,2.75
2023-03-14T03:41:27.445Z,2.35
2023-03-14T03:43:55.094Z,2.33
2023-03-14T03:46:21.761Z,2.67
2023-03-14T03:48:48.764Z,2.25
2023-03-14T03:51:16.385Z,3.10
2023-03-14T03:53:44.106Z,2.45
2023-03-14T03:56:13.894Z,2.03
2023-03-14T03:58:43.020Z,1.90
2023-03-14T04:01:11.478Z,1.40
2023-03-14T04:03:41.526Z,1.60
2023-03-14T04:06:11.784Z,1.45
2023-03-14T04:08:41.694Z,1.17
2023-03-14T04:11:11.361Z,1.20
2023-03-14T04:13:54.445Z,0.82
2023-03-14T04:16:26.600Z,1.45
2023-03-14T04:19:01.301Z,0.98
2023-03-14T04:21:28.174Z,1.30
2023-03-14T04:23:57.545Z,1.08
2023-03-14T04:26:26.620Z,1.95
2023-03-14T04:28:53.148Z,1.10
2023-03-14T04:31:22.416Z,1.20
2023-03-14T04:33:50.268Z,1.35
2023-03-14T04:36:22.751Z,1.55
2023-03-14T04:38:49.956Z,1.58
2023-03-14T04:41:23.399Z,1.30
2023-03-14T04:43:50.125Z,0.77
2023-03-14T04:46:16.719Z,0.98
2023-03-14T04:48:44.479Z,0.88
2023-03-14T04:51:11.498Z,1.10
2023-03-14T04:53:38.207Z,1.05
2023-03-14T04:56:09.262Z,1.00
2023-03-14T04:58:38.912Z,0.90
2023-03-14T05:01:06.784Z,1.20
2023-03-14T05:03:59.647Z,1.75
2023-03-14T05:06:35.984Z,1.30
2023-03-14T05:09:16.539Z,1.25
2023-03-14T05:12:02.550Z,1.40
2023-03-14T05:14:49.021Z,1.73
2023-03-14T05:17:44.603Z,1.33
2023-03-14T05:20:26.746Z,1.85
2023-03-14T05:23:10.432Z,1.85
2023-03-14T05:25:48.422Z,1.60
2023-03-14T05:28:32.100Z,1.90
2023-03-14T05:31:24.855Z,2.15
2023-03-14T05:34:09.908Z,2.00
2023-03-14T05:37:02.497Z,1.80
2023-03-14T05:39:58.324Z,1.50
2023-03-14T05:42:42.998Z,1.40
2023-03-14T05:45:34.653Z,1.48
2023-03-14T05:48:15.364Z,1.55
2023-03-14T05:50:49.587Z,1.48
2023-03-14T05:53:37.788Z,1.15
2023-03-14T05:56:25.681Z,1.00
2023-03-14T05:59:15.874Z,0.80
2023-03-14T06:02:01.218Z,1.35
2023-03-14T06:04:34.354Z,1.35
2023-03-14T06:07:00.958Z,1.30
2023-03-14T06:09:31.431Z,0.90
2023-03-14T06:12:02.129Z,1.10
2023-03-14T06:14:33.975Z,0.77
2023-03-14T06:17:00.580Z,1.02
2023-03-14T06:19:29.941Z,1.00
2023-03-14T06:21:56.449Z,0.90
2023-03-14T06:24:25.854Z,1.05
2023-03-14T06:26:53.421Z,0.93
2023-03-14T06:29:20.378Z,0.85
2023-03-14T06:31:47.132Z,1.00
2023-03-14T06:34:16.466Z,0.90
2023-03-14T06:36:43.776Z,0.80
2023-03-14T06:39:10.517Z,0.80
2023-03-14T06:41:41.642Z,0.90
2023-03-14T06:44:09.857Z,1.10
2023-03-14T06:46:36.467Z,0.82
2023-03-14T06:49:03.675Z,0.63
2023-03-14T06:51:31.893Z,0.75
2023-03-14T06:53:59.262Z,0.82
2023-03-14T06:56:28.199Z,1.00
2023-03-14T06:58:56.678Z,0.90
2023-03-14T07:01:30.920Z,0.90
2023-03-14T07:04:05.211Z,0.70
2023-03-14T07:06:32.373Z,0.95
2023-03-14T07:08:58.923Z,0.90
2023-03-14T07:11:25.630Z,0.93
2023-03-14T07:13:52.180Z,1.33
2023-03-14T07:16:19.130Z,1.00
2023-03-14T07:18:45.984Z,1.15
2023-03-14T07:21:13.169Z,1.10
2023-03-14T07:23:40.164Z,1.08
2023-03-14T07:26:08.460Z,0.95
2023-03-14T07:28:37.529Z,1.27
2023-03-14T07:31:09.656Z,1.10
2023-03-14T07:33:38.054Z,1.50
2023-03-14T07:36:05.611Z,1.27
2023-03-14T07:38:32.208Z,1.17
2023-03-14T07:41:10.769Z,1.45
2023-03-14T07:43:43.416Z,1.60
2023-03-14T07:46:10.001Z,1.20
2023-03-14T07:48:36.556Z,1.55
2023-03-14T07:51:03.338Z,1.60
2023-03-14T07:53:29.862Z,1.58
2023-03-14T07:55:56.427Z,1.63
2023-03-14T07:58:23.411Z,1.73
2023-03-14T08:00:50.582Z,2.10
2023-03-14T08:03:17.670Z,1.70
2023-03-14T08:05:45.685Z,1.40
2023-03-14T08:08:12.347Z,1.80
2023-03-14T08:10:39.985Z,1.73
2023-03-14T08:13:06.546Z,2.05
2023-03-14T08:15:33.123Z,1.70
2023-03-14T08:17:59.633Z,2.13
2023-03-14T08:20:29.035Z,1.90
2023-03-14T08:22:59.971Z,1.90
2023-03-14T08:25:27.299Z,1.80
2023-03-14T08:27:54.126Z,1.80
2023-03-14T08:30:21.557Z,1.77
2023-03-14T08:32:48.553Z,1.77
2023-03-14T08:35:15.930Z,1.70
2023-03-14T08:37:42.754Z,1.52
2023-03-14T08:40:10.897Z,2.28
2023-03-14T08:42:38.873Z,2.00
2023-03-14T08:45:06.419Z,2.20
2023-03-14T08:47:33.062Z,2.10
2023-03-14T08:49:59.665Z,2.47
2023-03-14T08:52:26.434Z,2.05
2023-03-14T08:54:53.009Z,2.47
2023-03-14T08:57:19.580Z,2.60
2023-03-14T08:59:46.151Z,2.28
2023-03-14T09:02:13.637Z,1.88
2023-03-14T09:04:40.490Z,2.30
2023-03-14T09:07:06.984Z,2.08
2023-03-14T09:09:33.562Z,2.10
2023-03-14T09:12:00.095Z,1.60
2023-03-14T09:14:26.900Z,0.95
2023-03-14T09:16:53.563Z,1.00
2023-03-14T09:19:20.202Z,1.00
2023-03-14T09:21:46.731Z,1.10
2023-03-14T09:24:13.289Z,0.90
2023-03-14T09:26:39.845Z,1.13
2023-03-14T09:29:06.353Z,1.30
2023-03-14T09:31:33.164Z,1.45
2023-03-14T09:33:59.703Z,1.67
2023-03-14T09:36:26.257Z,1.63
2023-03-14T09:38:52.754Z,1.60
2023-03-14T09:41:26.467Z,2.40
2023-03-14T09:44:23.490Z,2.00
2023-03-14T09:46:53.773Z,2.13
2023-03-14T09:49:28.062Z,2.97
2023-03-14T09:51:55.936Z,2.60
2023-03-14T09:54:31.218Z,2.70
2023-03-14T09:56:57.891Z,2.83
2023-03-14T09:59:24.728Z,3.40
2023-03-14T10:01:51.254Z,3.30
2023-03-14T10:04:23.872Z,2.97
2023-03-14T10:06:50.632Z,2.70
2023-03-14T10:09:26.093Z,3.20
2023-03-14T10:11:55.983Z,3.28
2023-03-14T10:14:34.383Z,3.08
2023-03-14T10:17:10.750Z,2.95
2023-03-14T10:19:38.674Z,3.67
2023-03-14T10:22:06.348Z,3.22
2023-03-14T10:24:35.463Z,2.67
2023-03-14T10:27:05.866Z,2.92
2023-03-14T10:29:34.244Z,2.27
2023-03-14T10:32:03.595Z,2.60
2023-03-14T10:34:35.450Z,2.10
2023-03-14T10:37:08.745Z,2.90
2023-03-14T10:39:35.282Z,3.00
2023-03-14T10:42:22.933Z,3.40
2023-03-14T10:44:54.764Z,3.10
2023-03-14T10:47:24.532Z,3.00
2023-03-14T10:49:51.552Z,2.47
2023-03-14T10:52:50.945Z,2.05
2023-03-14T10:55:15.670Z,2.28
2023-03-14T10:57:43.124Z,2.60
2023-03-14T11:00:17.727Z,2.88
2023-03-14T11:03:10.037Z,2.38
2023-03-14T11:05:57.725Z,3.22
2023-03-14T11:08:28.884Z,2.58
2023-03-14T11:13:26.312Z,2.75
2023-03-14T11:16:00.519Z,2.70
2023-03-14T11:18:56.289Z,2.45
2023-03-14T11:21:50.004Z,2.17
2023-03-14T11:24:34.461Z,2.00
2023-03-14T11:27:15.762Z,2.10
2023-03-14T11:32:40.749Z,1.60
2023-03-14T11:35:18.633Z,1.60
2023-03-14T11:37:54.066Z,1.60
2023-03-14T11:40:22.983Z,1.70
2023-03-14T11:42:58.116Z,2.00
2023-03-14T11:45:30.938Z,1.95
2023-03-14T11:48:10.951Z,1.90
2023-03-14T11:50:37.836Z,1.58
2023-03-14T11:53:39.636Z,1.65
2023-03-14T11:56:14.524Z,1.60
2023-03-14T11:58:47.048Z,1.70
2023-03-14T12:01:15.524Z,1.50
2023-03-14T12:03:57.098Z,1.70
2023-03-14T12:06:29.646Z,2.00
2023-03-14T12:09:04.329Z,1.80
2023-03-14T12:11:39.909Z,1.45
2023-03-14T12:14:39.210Z,1.73
2023-03-14T12:17:08.467Z,1.52
2023-03-14T12:19:42.435Z,2.15
2023-03-14T12:22:34.782Z,1.85
2023-03-14T12:25:05.564Z,1.90
2023-03-14T12:27:49.969Z,1.55
2023-03-14T12:30:16.399Z,2.17
2023-03-14T12:32:43.025Z,1.52
2023-03-14T12:35:35.984Z,1.67
2023-03-14T12:38:04.776Z,1.25
2023-03-14T12:40:34.525Z,1.45
2023-03-14T12:43:11.915Z,1.50
2023-03-14T12:45:38.586Z,2.13
2023-03-14T12:48:17.917Z,1.55
2023-03-14T12:50:55.498Z,1.45
2023-03-14T12:53:49.635Z,1.50
2023-03-14T12:56:23.970Z,1.70
2023-03-14T12:58:59.270Z,2.00
2023-03-14T13:01:26.203Z,2.25
2023-03-14T13:03:55.847Z,2.03
2023-03-14T13:06:55.094Z,2.83
2023-03-14T13:09:31.137Z,2.72
2023-03-14T13:12:02.167Z,3.10
2023-03-14T13:14:29.909Z,4.03
2023-03-14T13:16:56.827Z,5.70
2023-03-14T13:19:26.842Z,2.85
2023-03-14T13:21:58.431Z,4.78
2023-03-14T13:24:27.057Z,3.03
2023-03-14T13:26:55.473Z,4.13
2023-03-14T13:29:24.755Z,3.17
2023-03-14T13:31:57.500Z,3.08
2023-03-14T13:34:29.914Z,3.83
2023-03-14T13:36:56.583Z,3.20
2023-03-14T13:39:29.116Z,3.03
2023-03-14T13:42:02.519Z,3.33
2023-03-14T13:44:38.401Z,4.13
2023-03-14T13:47:10.260Z,3.47
2023-03-14T13:49:37.118Z,3.53
2023-03-14T13:52:04.828Z,3.17
2023-03-14T13:54:32.154Z,4.25
2023-03-14T13:57:06.564Z,2.78
2023-03-14T13:59:35.062Z,2.95
2023-03-14T14:02:05.421Z,2.65
2023-03-14T14:04:34.257Z,3.20
2023-03-14T14:07:01.596Z,3.25
2023-03-14T14:09:37.841Z,2.90
2023-03-14T14:12:15.922Z,3.58
2023-03-14T14:14:47.449Z,4.32
2023-03-14T14:17:17.468Z,3.00
2023-03-14T14:19:44.973Z,2.75
2023-03-14T14:22:11.827Z,3.33
2023-03-14T14:24:39.399Z,3.10
2023-03-14T14:27:15.816Z,2.20
2023-03-14T14:29:42.480Z,2.40
2023-03-14T14:32:09.136Z,2.40
2023-03-14T14:34:50.134Z,2.83
2023-03-14T14:37:27.516Z,2.33
2023-03-14T14:39:57.472Z,2.05
2023-03-14T14:42:27.480Z,3.10
2023-03-14T14:44:54.268Z,2.70
2023-03-14T14:47:25.634Z,2.35
2023-03-14T14:49:53.856Z,1.98
2023-03-14T14:52:43.404Z,2.78
2023-03-14T14:55:20.653Z,2.55
2023-03-14T14:57:53.418Z,2.15
2023-03-14T15:00:22.789Z,2.05
2023-03-14T15:03:11.536Z,1.98
2023-03-14T15:05:39.374Z,2.35
2023-03-14T15:08:10.907Z,2.17
2023-03-14T15:10:37.631Z,2.38
2023-03-14T15:13:04.186Z,2.10
2023-03-14T15:15:31.016Z,2.42
2023-03-14T15:17:57.687Z,1.90
2023-03-14T15:20:24.654Z,2.80
2023-03-14T15:22:51.589Z,2.78
2023-03-14T15:25:40.009Z,1.80
2023-03-14T15:28:06.176Z,2.67
2023-03-14T15:30:32.741Z,2.47
2023-03-14T15:32:59.384Z,1.88
2023-03-14T15:35:25.964Z,2.13
2023-03-14T15:37:52.540Z,1.95
2023-03-14T15:40:19.494Z,2.20
2023-03-14T15:42:46.013Z,2.72
2023-03-14T15:45:12.593Z,2.03
2023-03-14T15:47:39.529Z,2.25
2023-03-14T15:50:06.395Z,2.25
2023-03-14T15:52:33.093Z,2.05
2023-03-14T15:54:59.679Z,2.45
2023-03-14T15:57:26.234Z,2.10
2023-03-14T15:59:52.749Z,1.75
2023-03-14T16:02:19.265Z,1.75
2023-03-14T16:04:45.962Z,2.10
2023-03-14T16:07:12.549Z,1.63
2023-03-14T16:09:39.093Z,2.25
2023-03-14T16:12:07.911Z,1.73
2023-03-14T16:14:34.486Z,1.65
2023-03-14T16:17:01.094Z,2.13
2023-03-14T16:19:28.208Z,2.55
2023-03-14T16:21:54.769Z,2.25
2023-03-14T16:24:21.310Z,2.00
2023-03-14T16:26:48.662Z,2.00
2023-03-14T16:29:15.217Z,2.55
2023-03-14T16:31:43.036Z,2.53
2023-03-14T16:34:10.279Z,2.08
2023-03-14T16:36:36.839Z,2.50
2023-03-14T16:39:03.849Z,2.08
2023-03-14T16:41:31.521Z,2.10
2023-03-14T16:43:59.079Z,2.22
2023-03-14T16:46:28.023Z,2.30
2023-03-14T16:48:54.780Z,2.30
2023-03-14T16:51:21.532Z,2.72
2023-03-14T16:53:48.088Z,2.10
2023-03-14T16:56:15.178Z,2.45
2023-03-14T16:58:41.864Z,2.17
2023-03-14T17:01:10.797Z,2.25
2023-03-14T17:03:39.920Z,2.28
2023-03-14T17:06:07.378Z,2.00
2023-03-14T17:08:34.072Z,2.03
2023-03-14T17:11:00.935Z,2.40
2023-03-14T17:13:27.733Z,2.40
2023-03-14T17:15:55.993Z,2.58
2023-03-14T17:18:23.878Z,1.88
2023-03-14T17:20:54.057Z,2.38
2023-03-14T17:23:21.117Z,2.50
2023-03-14T17:25:50.221Z,2.38
2023-03-14T17:28:18.615Z,2.40
2023-03-14T17:30:45.942Z,1.98
2023-03-14T17:33:13.331Z,2.03
2023-03-14T17:35:40.036Z,1.95
2023-03-14T17:38:06.577Z,2.05
2023-03-14T17:40:33.318Z,2.13
2023-03-14T17:42:59.869Z,1.98
2023-03-14T17:45:26.439Z,2.20
2023-03-14T17:47:54.124Z,2.03
2023-03-14T17:50:21.767Z,2.53
2023-03-14T17:52:48.423Z,2.38
2023-03-14T17:55:14.970Z,2.33
2023-03-14T17:57:43.950Z,2.65
2023-03-14T18:00:11.898Z,2.75
2023-03-14T18:02:38.946Z,2.40
2023-03-14T18:05:06.012Z,2.92
2023-03-14T18:07:36.624Z,2.35
2023-03-14T18:10:06.679Z,2.65
2023-03-14T18:12:33.666Z,2.45
2023-03-14T18:15:01.601Z,3.20
2023-03-14T18:17:28.164Z,3.10
2023-03-14T18:19:56.320Z,3.55
2023-03-14T18:22:23.427Z,3.85
2023-03-14T18:24:50.539Z,4.47
2023-03-14T18:27:17.921Z,4.95
2023-03-14T18:29:44.692Z,3.50
2023-03-14T18:32:11.224Z,5.13
2023-03-14T18:34:37.724Z,3.53
2023-03-14T18:37:04.261Z,3.65
2023-03-14T18:39:30.807Z,3.53
2023-03-14T18:41:57.440Z,4.50
2023-03-14T18:44:23.977Z,4.82
2023-03-14T18:46:50.685Z,4.10
2023-03-14T18:49:17.512Z,3.83
2023-03-14T18:51:44.069Z,3.80
2023-03-14T18:54:11.559Z,3.58
2023-03-14T18:56:39.442Z,3.30
2023-03-14T18:59:06.481Z,2.92
2023-03-14T19:01:34.161Z,2.53
2023-03-14T19:04:01.761Z,2.67
2023-03-14T19:06:30.280Z,3.50
2023-03-14T19:08:56.786Z,2.53
2023-03-14T19:11:23.310Z,2.00
2023-03-14T19:13:49.847Z,2.95
2023-03-14T19:16:16.491Z,2.03
2023-03-14T19:18:43.182Z,2.63
2023-03-14T19:21:12.393Z,2.20
2023-03-14T19:23:40.847Z,2.78
2023-03-14T19:26:07.489Z,2.17
2023-03-14T19:28:34.062Z,2.97
2023-03-14T19:31:02.711Z,2.78
2023-03-14T19:33:29.828Z,2.90
2023-03-14T19:35:56.625Z,2.22
2023-03-14T19:38:23.196Z,3.13
2023-03-14T19:40:50.544Z,2.28
2023-03-14T19:43:17.270Z,3.17
2023-03-14T19:45:44.062Z,2.50
2023-03-14T19:48:11.603Z,2.30
2023-03-14T19:50:39.213Z,2.08
2023-03-14T19:53:08.192Z,2.30
2023-03-14T19:55:35.255Z,2.65
2023-03-14T19:58:02.060Z,2.72
2023-03-14T20:00:28.748Z,2.80
2023-03-14T20:02:55.582Z,2.20
2023-03-14T20:05:23.555Z,2.45
2023-03-14T20:07:50.764Z,2.97
2023-03-14T20:10:19.732Z,2.33
2023-03-14T20:12:46.360Z,2.88
2023-03-14T20:15:18.238Z,3.05
2023-03-14T20:17:49.161Z,2.22
2023-03-14T20:20:16.156Z,2.50
2023-03-14T20:22:43.026Z,2.70
2023-03-14T20:25:16.489Z,2.25
2023-03-14T20:27:43.130Z,2.30
2023-03-14T20:30:12.787Z,2.35
2023-03-14T20:32:42.859Z,2.28
2023-03-14T20:35:11.495Z,2.30
2023-03-14T20:37:38.948Z,2.33
2023-03-14T20:40:16.224Z,3.15
2023-03-14T20:42:43.424Z,3.65
2023-03-14T20:45:10.497Z,3.47
2023-03-14T20:47:37.855Z,3.08
2023-03-14T20:50:05.063Z,3.10
2023-03-14T20:52:31.684Z,2.85
2023-03-14T20:54:59.898Z,2.50
2023-03-14T20:57:27.166Z,2.70
2023-03-14T20:59:54.138Z,2.70
2023-03-14T21:02:21.274Z,2.38
2023-03-14T21:04:48.140Z,2.58
2023-03-14T21:07:14.913Z,3.50
2023-03-14T21:09:41.430Z,3.28
2023-03-14T21:12:08.233Z,3.60
2023-03-14T21:14:34.909Z,3.72
2023-03-14T21:17:02.096Z,3.03
2023-03-14T21:19:31.947Z,3.40
2023-03-14T21:22:04.788Z,3.20
2023-03-14T21:24:32.187Z,3.17
2023-03-14T21:26:58.789Z,2.88
2023-03-14T21:29:26.340Z,2.83
2023-03-14T21:31:52.945Z,3.92
2023-03-14T21:34:20.978Z,3.28
2023-03-14T21:36:48.899Z,3.05
2023-03-14T21:39:15.741Z,3.38
2023-03-14T21:41:42.391Z,3.08
2023-03-14T21:44:09.140Z,3.03
2023-03-14T21:46:36.366Z,3.22
2023-03-14T21:49:03.938Z,3.20
2023-03-14T21:51:31.232Z,3.63
2023-03-14T21:53:57.832Z,2.60
2023-03-14T21:56:26.928Z,2.85
2023-03-14T21:58:55.753Z,3.60
2023-03-14T22:01:25.145Z,2.47
2023-03-14T22:03:53.680Z,3.53
2023-03-14T22:06:21.056Z,3.05
2023-03-14T22:08:47.623Z,3.92
2023-03-14T22:11:14.477Z,3.30
2023-03-14T22:13:41.053Z,3.20
2023-03-14T22:16:08.166Z,3.47
2023-03-14T22:18:34.942Z,3.15
2023-03-14T22:21:02.113Z,2.50
2023-03-14T22:23:28.703Z,2.85
2023-03-14T22:25:55.294Z,3.20
2023-03-14T22:28:22.072Z,3.70
2023-03-14T22:30:49.871Z,2.85
2023-03-14T22:33:17.173Z,3.17
2023-03-14T22:35:53.584Z,3.75
2023-03-14T22:38:20.343Z,3.20
2023-03-14T22:40:47.277Z,3.05
2023-03-14T22:43:13.836Z,3.00
2023-03-14T22:45:41.240Z,3.33
2023-03-14T22:48:08.546Z,2.80
2023-03-14T22:50:35.062Z,2.75
2023-03-14T22:53:03.335Z,2.90
2023-03-14T22:55:29.964Z,2.78
2023-03-14T22:57:58.849Z,3.40
2023-03-14T23:00:26.856Z,2.95
2023-03-14T23:02:53.972Z,3.22
2023-03-14T23:05:20.889Z,3.90
2023-03-14T23:07:47.399Z,3.30
2023-03-14T23:10:14.062Z,3.33
2023-03-14T23:12:40.584Z,3.53
2023-03-14T23:15:08.510Z,3.15
2023-03-14T23:17:35.199Z,3.97
2023-03-14T23:20:06.416Z,3.85
2023-03-14T23:22:33.844Z,2.88
2023-03-14T23:25:01.482Z,2.95
2023-03-14T23:27:28.266Z,3.42
2023-03-14T23:29:54.761Z,3.10
2023-03-14T23:32:21.412Z,3.53
2023-03-14T23:34:48.310Z,2.78
2023-03-14T23:37:14.902Z,4.25
2023-03-14T23:39:44.368Z,4.32
2023-03-14T23:42:11.007Z,3.88
2023-03-14T23:44:37.975Z,4.88
2023-03-14T23:47:04.965Z,4.00
2023-03-14T23:49:31.504Z,4.25
2023-03-14T23:51:58.073Z,4.22
2023-03-14T23:54:24.629Z,4.75
2023-03-14T23:56:51.715Z,4.47
2023-03-14T23:59:18.275Z,4.32
